Midnight Wolf — HO7969 — position and weather

sailwx.info

Track history (hours):
 
Tides and Currents Weather Stations Pressure Air Temp Water Temp Dewpoint Dewpoint Depression Visibility Wind Speed Wind Dir Waves Ship Positions

Midnight Wolf

Last reported at 2014-Jun-30 16:33 UTC. Time now 2014-Aug-01 22:39 UTC.
Position N 17°51' W 063°39'.
Warning: this ship's position is 32 days out of date.

Length 51 m; draft 3 m.

Type: Cargo ship. MMSI: 351880000.

Date/timePositionNaut miles runAvg speedWind from/ knotsBaromVisibWave heightAir tempDewpointWater temp
2014-Jun-30 16:33N 17°51' W 063°39'  
2014-Jun-24 15:11N 18°06' W 063°31'6 9.2
2014-Jun-24 14:33N 18°04' W 063°25'10 9.3
2014-Jun-24 13:29N 18°01' W 063°15'9 9.1
2014-Jun-24 12:33N 17°59' W 063°06'6 1.7
2014-Jun-24 09:05N 17°58' W 063°00'4 8.3
2014-Jun-24 08:33N 17°59' W 063°05'6 5.5
2014-Jun-24 07:24N 18°05' W 063°08'2 2.6
2014-Jun-24 06:31N 18°05' W 063°05'0 0.0
2014-Jun-24 05:32N 18°05' W 063°05'0 0.0
2014-Jun-24 04:32N 18°05' W 063°05'0 0.0
2014-Jun-24 03:31N 18°05' W 063°05'0 0.0
2014-Jun-24 02:32N 18°05' W 063°05'0 0.2
2014-Jun-24 01:15N 18°05' W 063°05'0 0.0
2014-Jun-24 00:29N 18°05' W 063°05'0 0.1
2014-Jun-23 23:17N 18°05' W 063°05'0 0.0
2014-Jun-23 22:25N 18°05' W 063°05'2 2.4
2014-Jun-23 21:33N 18°05' W 063°07'8 8.0
2014-Jun-23 20:33N 18°06' W 063°16'8 7.7
2014-Jun-23 19:33N 18°07' W 063°24'  
Track history (hours):
 
Tides and Currents Weather Stations Pressure Air Temp Water Temp Dewpoint Dewpoint Depression Visibility Wind Speed Wind Dir Waves Ship Positions

Midnight Wolf

Last reported at 2014-Jun-30 16:33 UTC. Time now 2014-Aug-01 22:39 UTC.
Position N 17°51' W 063°39'.
Warning: this ship's position is 32 days out of date.

Length 51 m; draft 3 m.

Type: Cargo ship. MMSI: 351880000.

Date/timePositionNaut miles runAvg speedWind from/ knotsBaromVisibWave heightAir tempDewpointWater temp
2014-Jun-30 16:33N 17°51' W 063°39'  
2014-Jun-24 15:11N 18°06' W 063°31'6 9.2
2014-Jun-24 14:33N 18°04' W 063°25'10 9.3
2014-Jun-24 13:29N 18°01' W 063°15'9 9.1
2014-Jun-24 12:33N 17°59' W 063°06'6 1.7
2014-Jun-24 09:05N 17°58' W 063°00'4 8.3
2014-Jun-24 08:33N 17°59' W 063°05'6 5.5
2014-Jun-24 07:24N 18°05' W 063°08'2 2.6
2014-Jun-24 06:31N 18°05' W 063°05'0 0.0
2014-Jun-24 05:32N 18°05' W 063°05'0 0.0
2014-Jun-24 04:32N 18°05' W 063°05'0 0.0
2014-Jun-24 03:31N 18°05' W 063°05'0 0.0
2014-Jun-24 02:32N 18°05' W 063°05'0 0.2
2014-Jun-24 01:15N 18°05' W 063°05'0 0.0
2014-Jun-24 00:29N 18°05' W 063°05'0 0.1
2014-Jun-23 23:17N 18°05' W 063°05'0 0.0
2014-Jun-23 22:25N 18°05' W 063°05'2 2.4
2014-Jun-23 21:33N 18°05' W 063°07'8 8.0
2014-Jun-23 20:33N 18°06' W 063°16'8 7.7
2014-Jun-23 19:33N 18°07' W 063°24'  

Dump ship's entire track history